CYKA

Kamloops Airport

Kamloops, British Columbia, Canada
METAR CYKA 232200Z 08005KT 020V130 40SM FEW280 18/M07 A3037 RMK CI1 SLP295 DENSITY ALT 1300FT
Observed Flight Rules
Apr-23 @ 22:00 UTC (54 minutes ago) Visual Flight Rules
Wind Visibility Clouds
80° at 5 knots 40 miles
  • Few at 28,000' AGL
Temperatures Readings
Current 18°C / 64°F
Dewpoint -7°C / 19°F
Humidity 18%
Altimeter 30.37" Hg
Pressure 1029.5 hPa
Elevation 346
METAR CYKA 232200Z 08005KT 020V130 40SM FEW280 18/M07 A3037 RMK CI1 SLP295 DENSITY ALT 1300FT
Observed Flight Rules
Apr-23 @ 22:00 UTC
(54 minutes ago)
VFR
Wind Visibility
80° at 5 knots 40 miles
Clouds
  • Few at 28,000' AGL
Temperature Dewpoint
18°C / 64°F -7°C / 19°F
Humidity Altimeter Pressure
18% 30.37" Hg 1029.5 hPa